KSET

St Charles County Smartt Airport

St Charles, Missouri, USA
METAR KSET 231054Z AUTO 28014G22KT 10SM OVC015 02/00 A2980 RMK AO2 SLP092 T00220000
Observed Flight Rules
Jan-23 @ 10:54 UTC (an hour ago) Marginal Visual Flight Rules
Wind Visibility Clouds
280° at 14 knots
 Gusting to 22 knots
10 miles
  • Overcast at 1,500' AGL
Temperatures Readings
Current 2°C / 36°F
Dewpoint 0°C / 32°F
Humidity 87%
Altimeter 29.8" Hg
Pressure 1009.2 hPa
Elevation 134
METAR KSET 231054Z AUTO 28014G22KT 10SM OVC015 02/00 A2980 RMK AO2 SLP092 T00220000
Observed Flight Rules
Jan-23 @ 10:54 UTC
(an hour ago)
MVFR
Wind Visibility
280° at 14 knots
 Gusting to 22 knots
10 miles
Clouds
  • Overcast at 1,500' AGL
Temperature Dewpoint
2°C / 36°F 0°C / 32°F
Humidity Altimeter Pressure
87% 29.8" Hg 1009.2 hPa